createdAt,value
2019-03-26T00:00:59.269Z,101390.05
2019-03-26T00:02:04.053Z,101386.00
2019-03-26T00:03:08.735Z,101392.75
2019-03-26T00:04:13.411Z,101391.45
2019-03-26T00:05:18.176Z,101390.53
2019-03-26T00:06:22.860Z,101385.59
2019-03-26T00:07:27.309Z,101387.83
2019-03-26T00:08:31.912Z,101385.56
2019-03-26T00:09:36.769Z,101388.70
2019-03-26T00:10:41.209Z,101388.27
2019-03-26T00:11:45.905Z,101388.73
2019-03-26T00:12:50.276Z,101388.35
2019-03-26T00:13:57.621Z,101386.14
2019-03-26T00:15:00.787Z,101388.86
2019-03-26T00:16:05.326Z,101381.24
2019-03-26T00:17:10.015Z,101387.97
2019-03-26T00:18:14.622Z,101386.19
2019-03-26T00:19:19.225Z,101389.32
2019-03-26T00:20:23.737Z,101387.52
2019-03-26T00:21:28.345Z,101387.95
2019-03-26T00:22:33.210Z,101387.92
2019-03-26T00:23:37.828Z,101385.16
2019-03-26T00:24:42.435Z,101377.03
2019-03-26T00:25:46.796Z,101387.34
2019-03-26T00:26:51.238Z,101386.89
2019-03-26T00:27:55.871Z,101383.70
2019-03-26T00:29:00.871Z,101380.11
2019-03-26T00:30:05.933Z,101388.22
2019-03-26T00:31:10.367Z,101381.92
2019-03-26T00:32:14.999Z,101388.70
2019-03-26T00:33:19.458Z,101388.27
2019-03-26T00:34:23.822Z,101387.83
2019-03-26T00:35:28.188Z,101382.89
2019-03-26T00:36:32.545Z,101379.81
2019-03-26T00:37:36.997Z,101383.89
2019-03-26T00:38:41.594Z,101382.56
2019-03-26T00:39:46.304Z,101383.05
2019-03-26T00:40:51.168Z,101380.81
2019-03-26T00:41:55.696Z,101382.22
2019-03-26T00:43:00.226Z,101384.95
2019-03-26T00:44:04.744Z,101378.19
2019-03-26T00:45:09.447Z,101382.70
2019-03-26T00:46:13.807Z,101377.30
2019-03-26T00:47:18.169Z,101377.73
2019-03-26T00:48:23.117Z,101375.47
2019-03-26T00:49:27.561Z,101383.05
2019-03-26T00:50:32.077Z,101385.73
2019-03-26T00:51:36.758Z,101385.27
2019-03-26T00:52:41.137Z,101390.19
2019-03-26T00:53:46.320Z,101384.78
2019-03-26T00:54:50.687Z,101385.22
2019-03-26T00:55:55.054Z,101388.81
2019-03-26T00:57:00.062Z,101385.66
2019-03-26T00:58:04.534Z,101389.70
2019-03-26T00:59:09.048Z,101391.45
2019-03-26T01:00:14.131Z,101379.81
2019-03-26T01:01:18.607Z,101390.53
2019-03-26T01:02:23.294Z,101390.10
2019-03-26T01:03:27.663Z,101387.86
2019-03-26T01:04:33.472Z,101387.86
2019-03-26T01:05:38.010Z,101390.19
2019-03-26T01:06:42.775Z,101386.16
2019-03-26T01:07:47.228Z,101392.05
2019-03-26T01:08:51.593Z,101390.70
2019-03-26T01:09:56.033Z,101396.13
2019-03-26T01:11:01.144Z,101395.30
2019-03-26T01:12:05.661Z,101393.08
2019-03-26T01:13:10.452Z,101397.13
2019-03-26T01:14:14.796Z,101399.87
2019-03-26T01:15:19.422Z,101404.39
2019-03-26T01:16:24.041Z,101404.45
2019-03-26T01:17:28.657Z,101407.16
2019-03-26T01:18:33.606Z,101409.85
2019-03-26T01:19:38.540Z,101411.14
2019-03-26T01:20:43.300Z,101409.33
2019-03-26T01:21:48.071Z,101416.09
2019-03-26T01:22:52.837Z,101416.95
2019-03-26T01:23:57.447Z,101418.77
2019-03-26T01:25:01.971Z,101421.44
2019-03-26T01:26:06.410Z,101413.34
2019-03-26T01:27:11.181Z,101415.12
2019-03-26T01:28:15.634Z,101416.91
2019-03-26T01:29:20.239Z,101418.69
2019-03-26T01:30:24.755Z,101415.03
2019-03-26T01:31:29.272Z,101416.84
2019-03-26T01:32:33.710Z,101421.39
2019-03-26T01:33:38.410Z,101419.17
2019-03-26T01:34:46.234Z,101417.88
2019-03-26T01:35:49.173Z,101422.41
2019-03-26T01:36:53.546Z,101428.27
2019-03-26T01:37:58.574Z,101424.70
2019-03-26T01:39:02.968Z,101426.97
2019-03-26T01:40:07.525Z,101425.19
2019-03-26T01:41:12.174Z,101431.94
2019-03-26T01:42:16.610Z,101433.75
2019-03-26T01:43:21.224Z,101431.05
2019-03-26T01:44:26.161Z,101435.53
2019-03-26T01:45:30.841Z,101429.70
2019-03-26T01:46:35.769Z,101433.29
2019-03-26T01:47:40.344Z,101432.84
2019-03-26T01:48:44.817Z,101437.80
2019-03-26T01:49:49.191Z,101441.85
2019-03-26T01:50:53.625Z,101440.95
2019-03-26T01:51:58.003Z,101438.72
2019-03-26T01:53:02.688Z,101439.17
2019-03-26T01:54:07.151Z,101439.66
2019-03-26T01:55:11.990Z,101440.66
2019-03-26T01:56:16.676Z,101437.54
2019-03-26T01:57:21.861Z,101441.18
2019-03-26T01:58:26.226Z,101441.18
2019-03-26T01:59:30.851Z,101446.20
2019-03-26T02:00:35.364Z,101443.09
2019-03-26T02:01:40.383Z,101439.95
2019-03-26T02:02:44.979Z,101443.56
2019-03-26T02:03:49.605Z,101445.83
2019-03-26T02:04:59.751Z,101449.94
2019-03-26T02:06:00.049Z,101448.59
2019-03-26T02:07:04.495Z,101451.31
2019-03-26T02:08:09.264Z,101450.44
2019-03-26T02:09:13.868Z,101455.84
2019-03-26T02:10:18.311Z,101456.31
2019-03-26T02:11:22.671Z,101449.11
2019-03-26T02:12:27.182Z,101451.38
2019-03-26T02:13:31.863Z,101455.88
2019-03-26T02:14:36.678Z,101458.58
2019-03-26T02:15:41.055Z,101455.48
2019-03-26T02:16:45.422Z,101459.53
2019-03-26T02:17:50.429Z,101460.83
2019-03-26T02:18:55.377Z,101465.29
2019-03-26T02:20:00.015Z,101463.48
2019-03-26T02:21:05.576Z,101466.16
2019-03-26T02:22:09.940Z,101473.78
2019-03-26T02:23:14.457Z,101469.67
2019-03-26T02:24:18.904Z,101475.91
2019-03-26T02:25:23.590Z,101474.99
2019-03-26T02:26:28.106Z,101469.97
2019-03-26T02:27:32.721Z,101466.35
2019-03-26T02:28:37.231Z,101473.52
2019-03-26T02:29:41.684Z,101471.23
2019-03-26T02:30:46.302Z,101463.53
2019-03-26T02:31:50.742Z,101467.53
2019-03-26T02:32:55.442Z,101463.92
2019-03-26T02:33:59.802Z,101463.87
2019-03-26T02:35:16.849Z,101465.62
2019-03-26T02:36:10.501Z,101470.11
2019-03-26T02:37:15.285Z,101462.88
2019-03-26T02:38:19.932Z,101461.53
2019-03-26T02:39:24.576Z,101464.23
2019-03-26T02:40:29.267Z,101458.84
2019-03-26T02:41:37.636Z,101462.09
2019-03-26T02:42:40.122Z,101456.69
2019-03-26T02:43:44.806Z,101461.66
2019-03-26T02:44:49.179Z,101464.37
2019-03-26T02:45:53.861Z,101468.88
2019-03-26T02:46:58.307Z,101466.62
2019-03-26T02:48:03.020Z,101461.22
2019-03-26T02:49:07.532Z,101462.55
2019-03-26T02:50:12.159Z,101463.46
2019-03-26T02:51:16.677Z,101454.03
2019-03-26T02:52:21.117Z,101454.92
2019-03-26T02:53:25.512Z,101461.22
2019-03-26T02:54:30.224Z,101460.33
2019-03-26T02:55:34.873Z,101459.89
2019-03-26T02:56:39.310Z,101462.16
2019-03-26T02:57:43.758Z,101458.56
2019-03-26T02:58:48.682Z,101459.43
2019-03-26T02:59:53.143Z,101459.43
2019-03-26T03:00:57.752Z,101462.56
2019-03-26T03:02:02.112Z,101464.79
2019-03-26T03:03:06.558Z,101462.52
2019-03-26T03:04:11.412Z,101461.63
2019-03-26T03:05:15.879Z,101470.11
2019-03-26T03:06:20.505Z,101466.52
2019-03-26T03:07:24.874Z,101470.11
2019-03-26T03:08:29.385Z,101473.25
2019-03-26T03:09:34.004Z,101471.44
2019-03-26T03:10:38.708Z,101470.09
2019-03-26T03:11:43.323Z,101468.28
2019-03-26T03:12:47.853Z,101472.77
2019-03-26T03:13:52.212Z,101467.34
2019-03-26T03:14:56.837Z,101462.85
2019-03-26T03:16:01.627Z,101475.44
2019-03-26T03:17:06.382Z,101468.23
2019-03-26T03:18:10.755Z,101467.80
2019-03-26T03:19:16.166Z,101471.85
2019-03-26T03:20:20.979Z,101474.12
2019-03-26T03:21:25.423Z,101469.17
2019-03-26T03:22:29.940Z,101479.08
2019-03-26T03:23:34.533Z,101473.25
2019-03-26T03:24:39.136Z,101472.79
2019-03-26T03:25:43.589Z,101474.12
2019-03-26T03:26:48.774Z,101477.23
2019-03-26T03:27:53.215Z,101475.44
2019-03-26T03:28:57.662Z,101477.69
2019-03-26T03:30:02.406Z,101472.28
2019-03-26T03:31:07.081Z,101479.49
2019-03-26T03:32:11.497Z,101477.63
2019-03-26T03:33:16.091Z,101479.41
2019-03-26T03:34:20.783Z,101476.28
2019-03-26T03:35:25.565Z,101484.36
2019-03-26T03:36:29.938Z,101484.34
2019-03-26T03:37:34.369Z,101484.80
2019-03-26T03:38:41.299Z,101484.80
2019-03-26T03:39:45.239Z,101488.41
2019-03-26T03:40:49.679Z,101489.77
2019-03-26T03:41:54.124Z,101494.25
2019-03-26T03:42:58.910Z,101487.52
2019-03-26T03:44:03.441Z,101490.22
2019-03-26T03:45:09.880Z,101488.41
2019-03-26T03:46:14.369Z,101493.38
2019-03-26T03:47:20.824Z,101500.13
2019-03-26T03:48:25.450Z,101495.19
2019-03-26T03:49:31.669Z,101501.55
2019-03-26T03:50:37.751Z,101497.97
2019-03-26T03:51:43.971Z,101503.39
2019-03-26T03:52:49.085Z,101506.12
2019-03-26T03:53:53.909Z,101509.28
2019-03-26T03:54:58.620Z,101505.23
2019-03-26T03:56:03.652Z,101504.33
2019-03-26T03:57:09.280Z,101503.44
2019-03-26T03:58:14.800Z,101508.44
2019-03-26T03:59:20.014Z,101511.14
2019-03-26T04:00:37.850Z,101508.00
2019-03-26T04:01:42.366Z,101495.89
2019-03-26T04:02:46.805Z,101503.56
2019-03-26T04:03:51.568Z,101504.50
2019-03-26T04:04:56.120Z,101500.06
2019-03-26T04:06:08.737Z,101503.72
2019-03-26T04:07:06.579Z,101507.85
2019-03-26T04:08:11.093Z,101503.84
2019-03-26T04:09:16.026Z,101503.88
2019-03-26T04:10:20.404Z,101509.36
2019-03-26T04:11:25.161Z,101512.08
2019-03-26T04:12:29.472Z,101510.83
2019-03-26T04:13:33.840Z,101511.30
2019-03-26T04:14:38.783Z,101509.99
2019-03-26T04:15:43.240Z,101510.47
2019-03-26T04:16:47.929Z,101519.09
2019-03-26T04:17:52.642Z,101512.41
2019-03-26T04:18:57.008Z,101518.31
2019-03-26T04:20:01.375Z,101514.77
2019-03-26T04:21:06.013Z,101516.19
2019-03-26T04:22:11.023Z,101519.82
2019-03-26T04:23:15.789Z,101515.86
2019-03-26T04:24:20.483Z,101519.06
2019-03-26T04:25:25.257Z,101520.05
2019-03-26T04:26:29.807Z,101517.84
2019-03-26T04:27:37.031Z,101518.36
2019-03-26T04:28:41.717Z,101520.18
2019-03-26T04:29:46.087Z,101519.34
2019-03-26T04:30:50.455Z,101523.45
2019-03-26T04:31:55.174Z,101523.02
2019-03-26T04:32:59.946Z,101524.02
2019-03-26T04:34:04.389Z,101528.52
2019-03-26T04:35:08.937Z,101521.83
2019-03-26T04:36:25.374Z,101521.86
2019-03-26T04:37:19.476Z,101532.22
2019-03-26T04:38:24.225Z,101523.29
2019-03-26T04:39:28.866Z,101526.91
2019-03-26T04:40:33.647Z,101526.91
2019-03-26T04:41:38.219Z,101531.83
2019-03-26T04:42:42.804Z,101533.20
2019-03-26T04:43:47.249Z,101535.98
2019-03-26T04:44:52.138Z,101535.09
2019-03-26T04:45:56.751Z,101537.80
2019-03-26T04:47:01.444Z,101532.86
2019-03-26T04:48:05.983Z,101536.01
2019-03-26T04:49:10.427Z,101538.72
2019-03-26T04:50:14.958Z,101542.75
2019-03-26T04:51:19.654Z,101538.70
2019-03-26T04:52:24.284Z,101543.64
2019-03-26T04:53:28.898Z,101541.84
2019-03-26T04:54:33.266Z,101539.08
2019-03-26T04:55:37.716Z,101545.83
2019-03-26T04:56:42.422Z,101541.83
2019-03-26T04:57:46.867Z,101539.59
2019-03-26T04:58:51.227Z,101539.14
2019-03-26T04:59:55.591Z,101540.49
2019-03-26T05:01:00.361Z,101549.02
2019-03-26T05:02:05.058Z,101547.23
2019-03-26T05:03:09.514Z,101545.88
2019-03-26T05:04:13.923Z,101547.70
2019-03-26T05:05:18.389Z,101550.83
2019-03-26T05:06:22.829Z,101550.83
2019-03-26T05:07:27.206Z,101555.78
2019-03-26T05:08:32.143Z,101546.35
2019-03-26T05:09:36.822Z,101554.89
2019-03-26T05:10:41.337Z,101559.39
2019-03-26T05:11:46.105Z,101558.05
2019-03-26T05:12:50.893Z,101558.51
2019-03-26T05:13:55.611Z,101564.35
2019-03-26T05:15:00.486Z,101565.70
2019-03-26T05:16:05.001Z,101570.23
2019-03-26T05:17:09.386Z,101568.00
2019-03-26T05:18:13.833Z,101568.91
2019-03-26T05:19:18.198Z,101565.77
2019-03-26T05:20:22.565Z,101572.06
2019-03-26T05:21:26.935Z,101571.19
2019-03-26T05:22:31.390Z,101575.69
2019-03-26T05:23:36.006Z,101574.83
2019-03-26T05:24:40.622Z,101577.53
2019-03-26T05:25:45.319Z,101581.14
2019-03-26T05:26:49.764Z,101577.58
2019-03-26T05:27:54.554Z,101574.92
2019-03-26T05:28:58.914Z,101582.57
2019-03-26T05:30:03.368Z,101583.91
2019-03-26T05:31:07.884Z,101587.97
2019-03-26T05:32:12.260Z,101587.53
2019-03-26T05:33:16.706Z,101590.22
2019-03-26T05:34:21.393Z,101589.33
2019-03-26T05:35:26.190Z,101584.84
2019-03-26T05:36:31.141Z,101587.53
2019-03-26T05:37:35.694Z,101589.79
2019-03-26T05:38:40.383Z,101589.79
2019-03-26T05:39:44.994Z,101595.63
2019-03-26T05:40:49.603Z,101595.63
2019-03-26T05:41:54.463Z,101592.46
2019-03-26T05:42:58.836Z,101598.73
2019-03-26T05:44:04.342Z,101595.14
2019-03-26T05:45:09.521Z,101598.73
2019-03-26T05:46:13.965Z,101599.56
2019-03-26T05:47:18.796Z,101601.80
2019-03-26T05:48:23.493Z,101602.23
2019-03-26T05:49:28.352Z,101608.91
2019-03-26T05:50:32.716Z,101608.90
2019-03-26T05:51:37.581Z,101611.58
2019-03-26T05:52:42.197Z,101616.47
2019-03-26T05:53:46.936Z,101614.66
2019-03-26T05:54:51.383Z,101615.98
2019-03-26T05:55:56.069Z,101607.89
2019-03-26T05:57:00.602Z,101614.57
2019-03-26T05:58:05.064Z,101612.75
2019-03-26T05:59:09.499Z,101607.78
2019-03-26T06:00:21.183Z,101612.20
2019-03-26T06:01:25.870Z,101612.64
2019-03-26T06:02:30.557Z,101607.61
2019-03-26T06:03:34.939Z,101609.84
2019-03-26T06:04:39.630Z,101608.88
2019-03-26T06:05:44.246Z,101616.05
2019-03-26T06:06:48.687Z,101615.53
2019-03-26T06:07:53.046Z,101621.36
2019-03-26T06:08:57.420Z,101618.58
2019-03-26T06:10:01.783Z,101618.55
2019-03-26T06:11:06.228Z,101621.22
2019-03-26T06:12:10.593Z,101625.20
2019-03-26T06:13:15.054Z,101632.83
2019-03-26T06:14:19.422Z,101632.80
2019-03-26T06:15:24.164Z,101629.14
2019-03-26T06:16:38.254Z,101628.22
2019-03-26T06:17:35.021Z,101630.44
2019-03-26T06:18:39.404Z,101626.30
2019-03-26T06:19:43.845Z,101628.06
2019-03-26T06:20:48.291Z,101630.67
2019-03-26T06:21:53.269Z,101623.44
2019-03-26T06:22:57.636Z,101626.52
2019-03-26T06:24:02.162Z,101626.48
2019-03-26T06:25:06.906Z,101626.41
2019-03-26T06:26:11.348Z,101622.78
2019-03-26T06:27:15.878Z,101623.66
2019-03-26T06:28:20.321Z,101623.59
2019-03-26T06:29:24.701Z,101620.41
2019-03-26T06:30:29.392Z,101620.81
2019-03-26T06:31:34.078Z,101620.28
2019-03-26T06:32:38.562Z,101620.25
2019-03-26T06:33:43.238Z,101617.91
2019-03-26T06:34:47.933Z,101620.56
2019-03-26T06:35:52.620Z,101620.95
2019-03-26T06:36:56.984Z,101617.33
2019-03-26T06:38:01.665Z,101620.91
2019-03-26T06:39:08.188Z,101617.73
2019-03-26T06:40:13.253Z,101617.66
2019-03-26T06:41:17.616Z,101617.61
2019-03-26T06:42:22.557Z,101615.39
2019-03-26T06:43:27.252Z,101618.98
2019-03-26T06:44:31.706Z,101619.44
2019-03-26T06:45:36.232Z,101612.65
2019-03-26T06:46:40.753Z,101608.12
2019-03-26T06:47:45.521Z,101612.11
2019-03-26T06:48:50.081Z,101614.80
2019-03-26T06:49:54.531Z,101615.71
2019-03-26T06:50:59.142Z,101621.55
2019-03-26T06:52:03.510Z,101630.09
2019-03-26T06:53:08.024Z,101627.81
2019-03-26T06:54:12.656Z,101632.28
2019-03-26T06:55:17.097Z,101638.09
2019-03-26T06:56:21.756Z,101638.05
2019-03-26T06:57:35.597Z,101644.32
2019-03-26T06:58:33.020Z,101640.20
2019-03-26T06:59:37.720Z,101635.22
2019-03-26T07:00:42.239Z,101636.53
2019-03-26T07:01:46.932Z,101635.59
2019-03-26T07:02:51.536Z,101638.76
2019-03-26T07:03:56.827Z,101639.20
2019-03-26T07:05:01.558Z,101642.36
2019-03-26T07:06:05.995Z,101642.81
2019-03-26T07:07:10.761Z,101649.57
2019-03-26T07:08:15.201Z,101650.92
2019-03-26T07:09:19.826Z,101656.80
2019-03-26T07:10:27.399Z,101655.02
2019-03-26T07:11:31.841Z,101665.38
2019-03-26T07:12:36.208Z,101652.77
2019-03-26T07:13:40.800Z,101662.19
2019-03-26T07:14:45.287Z,101659.84
2019-03-26T07:15:49.747Z,101660.27
2019-03-26T07:16:54.189Z,101656.09
2019-03-26T07:17:58.961Z,101650.10
2019-03-26T07:19:03.423Z,101647.23
2019-03-26T07:20:08.281Z,101653.36
2019-03-26T07:21:13.029Z,101645.06
2019-03-26T07:22:17.428Z,101634.53
2019-03-26T07:23:21.948Z,101647.88
2019-03-26T07:24:26.478Z,101646.73
2019-03-26T07:25:31.002Z,101645.67
2019-03-26T07:26:35.766Z,101632.94
2019-03-26T07:27:40.545Z,101632.76
2019-03-26T07:28:45.061Z,101627.66
2019-03-26T07:29:49.529Z,101627.52
2019-03-26T07:30:53.975Z,101626.08
2019-03-26T07:31:58.343Z,101621.09
2019-03-26T07:33:02.963Z,101621.95
2019-03-26T07:34:07.643Z,101622.44
2019-03-26T07:35:12.183Z,101619.30
2019-03-26T07:36:16.632Z,101622.02
2019-03-26T07:37:21.078Z,101617.52
2019-03-26T07:38:25.899Z,101611.23
2019-03-26T07:39:30.448Z,101615.73
2019-03-26T07:40:34.891Z,101618.96
2019-03-26T07:41:39.406Z,101618.50
2019-03-26T07:42:44.108Z,101612.25
2019-03-26T07:43:48.563Z,101619.42
2019-03-26T07:44:53.245Z,101620.37
2019-03-26T07:45:58.014Z,101620.77
2019-03-26T07:47:02.785Z,101627.97
2019-03-26T07:48:07.234Z,101627.55
2019-03-26T07:49:11.680Z,101629.30
2019-03-26T07:50:16.215Z,101636.94
2019-03-26T07:51:20.655Z,101635.00
2019-03-26T07:52:25.346Z,101643.03
2019-03-26T07:53:29.962Z,101638.86
2019-03-26T07:54:34.595Z,101646.37
2019-03-26T07:55:39.040Z,101646.25
2019-03-26T07:56:43.487Z,101642.06
2019-03-26T07:57:47.943Z,101647.78
2019-03-26T07:58:52.316Z,101648.61
2019-03-26T07:59:56.779Z,101645.31
2019-03-26T08:01:01.145Z,101645.72
2019-03-26T08:02:05.919Z,101647.02
2019-03-26T08:03:10.443Z,101646.48
2019-03-26T08:04:14.805Z,101647.31
2019-03-26T08:05:29.325Z,101652.17
2019-03-26T08:06:27.204Z,101654.36
2019-03-26T08:07:31.545Z,101650.16
2019-03-26T08:08:36.162Z,101655.45
2019-03-26T08:09:40.616Z,101653.07
2019-03-26T08:10:45.248Z,101652.91
2019-03-26T08:11:49.962Z,101654.13
2019-03-26T08:12:54.646Z,101655.81
2019-03-26T08:13:59.085Z,101662.45
2019-03-26T08:15:03.680Z,101662.38
2019-03-26T08:16:08.027Z,101664.59
2019-03-26T08:17:12.735Z,101663.61
2019-03-26T08:18:17.091Z,101665.85
2019-03-26T08:19:21.778Z,101659.00
2019-03-26T08:20:26.166Z,101660.28
2019-03-26T08:21:30.840Z,101663.33
2019-03-26T08:22:35.458Z,101668.72
2019-03-26T08:23:39.824Z,101635.66
2019-03-26T08:24:44.353Z,101663.11
2019-03-26T08:25:49.053Z,101662.08
2019-03-26T08:26:53.741Z,101660.11
2019-03-26T08:27:58.427Z,101662.68
2019-03-26T08:29:03.117Z,101661.64
2019-03-26T08:30:07.798Z,101654.75
2019-03-26T08:31:12.301Z,101660.02
2019-03-26T08:32:16.981Z,101660.34
2019-03-26T08:33:23.416Z,101662.88
2019-03-26T08:34:27.881Z,101660.47
2019-03-26T08:35:32.589Z,101657.09
2019-03-26T08:36:37.359Z,101666.41
2019-03-26T08:37:41.876Z,101667.58
2019-03-26T08:38:46.840Z,101669.32
2019-03-26T08:39:51.448Z,101675.14
2019-03-26T08:40:55.831Z,101670.59
2019-03-26T08:42:01.118Z,101673.16
2019-03-26T08:43:05.653Z,101677.97
2019-03-26T08:44:10.175Z,101670.59
2019-03-26T08:45:14.822Z,101667.76
2019-03-26T08:46:19.280Z,101672.48
2019-03-26T08:47:24.051Z,101670.19
2019-03-26T08:48:28.419Z,101665.34
2019-03-26T08:49:32.867Z,101667.59
2019-03-26T08:50:37.234Z,101661.11
2019-03-26T08:51:41.687Z,101657.80
2019-03-26T08:52:46.641Z,101659.88
2019-03-26T08:53:51.080Z,101661.58
2019-03-26T08:54:55.441Z,101659.20
2019-03-26T08:56:00.137Z,101663.07
2019-03-26T08:57:04.603Z,101661.11
2019-03-26T08:58:09.131Z,101660.95
2019-03-26T08:59:13.508Z,101660.01
2019-03-26T09:00:18.132Z,101668.59
2019-03-26T09:01:22.818Z,101650.33
2019-03-26T09:02:27.281Z,101663.16
2019-03-26T09:03:31.723Z,101668.21
2019-03-26T09:04:36.653Z,101661.92
2019-03-26T09:05:41.174Z,101662.05
2019-03-26T09:06:45.796Z,101658.91
2019-03-26T09:07:50.251Z,101655.25
2019-03-26T09:08:54.735Z,101660.52
2019-03-26T09:09:59.176Z,101659.20
2019-03-26T09:11:03.798Z,101646.55
2019-03-26T09:12:08.244Z,101668.55
2019-03-26T09:13:12.685Z,101670.45
2019-03-26T09:14:17.370Z,101672.20
2019-03-26T09:15:21.900Z,101678.78
2019-03-26T09:16:28.605Z,101681.38
2019-03-26T09:17:32.804Z,101682.86
2019-03-26T09:18:37.244Z,101676.41
2019-03-26T09:19:41.607Z,101672.92
2019-03-26T09:20:46.056Z,101668.64
2019-03-26T09:21:50.498Z,101663.41
2019-03-26T09:22:55.030Z,101669.48
2019-03-26T09:23:59.507Z,101667.31
2019-03-26T09:25:04.583Z,101678.23
2019-03-26T09:26:09.026Z,101671.01
2019-03-26T09:27:13.478Z,101672.06
2019-03-26T09:28:17.922Z,101670.41
2019-03-26T09:29:22.306Z,101673.02
2019-03-26T09:30:26.749Z,101678.03
2019-03-26T09:31:31.129Z,101676.38
2019-03-26T09:32:35.830Z,101676.17
2019-03-26T09:33:40.522Z,101681.77
2019-03-26T09:34:45.141Z,101678.31
2019-03-26T09:35:49.590Z,101681.73
2019-03-26T09:36:54.558Z,101690.92
2019-03-26T09:37:59.010Z,101678.78
2019-03-26T09:39:05.664Z,101682.20
2019-03-26T09:40:10.917Z,101683.71
2019-03-26T09:41:15.615Z,101682.82
2019-03-26T09:42:20.234Z,101683.56
2019-03-26T09:43:24.760Z,101692.60
2019-03-26T09:44:29.376Z,101691.75
2019-03-26T09:45:34.088Z,101694.47
2019-03-26T09:46:38.537Z,101691.75
2019-03-26T09:47:43.307Z,101694.27
2019-03-26T09:48:47.826Z,101688.06
2019-03-26T09:49:52.616Z,101695.31
2019-03-26T09:50:57.062Z,101692.88
2019-03-26T09:52:01.587Z,101690.39
2019-03-26T09:53:06.321Z,101697.45
2019-03-26T09:54:11.260Z,101692.83
2019-03-26T09:55:15.798Z,101682.80
2019-03-26T09:56:29.163Z,101689.02
2019-03-26T09:57:27.156Z,101690.87
2019-03-26T09:58:31.609Z,101693.52
2019-03-26T09:59:36.223Z,101690.80
2019-03-26T10:00:40.842Z,101692.98
2019-03-26T10:01:45.538Z,101689.80
2019-03-26T10:02:49.978Z,101695.66
2019-03-26T10:03:54.423Z,101691.16
2019-03-26T10:04:58.873Z,101691.11
2019-03-26T10:06:03.653Z,101691.55
2019-03-26T10:07:20.538Z,101690.61
2019-03-26T10:08:17.532Z,101695.00
2019-03-26T10:09:20.425Z,101688.09
2019-03-26T10:10:25.367Z,101684.72
2019-03-26T10:11:29.752Z,101686.73
2019-03-26T10:12:34.277Z,101686.73
2019-03-26T10:13:39.075Z,101682.62
2019-03-26T10:14:43.761Z,101681.27
2019-03-26T10:15:48.233Z,101682.59
2019-03-26T10:16:52.840Z,101682.59
2019-03-26T10:17:57.295Z,101676.73
2019-03-26T10:19:01.736Z,101675.88
2019-03-26T10:20:07.193Z,101679.99
2019-03-26T10:21:11.715Z,101674.36
2019-03-26T10:22:16.167Z,101670.20
2019-03-26T10:23:20.695Z,101663.92
2019-03-26T10:24:25.134Z,101666.37
2019-03-26T10:25:29.572Z,101673.59
2019-03-26T10:26:34.039Z,101668.42
2019-03-26T10:27:38.496Z,101671.02
2019-03-26T10:28:43.024Z,101671.28
2019-03-26T10:29:47.378Z,101670.19
2019-03-26T10:30:52.590Z,101667.70
2019-03-26T10:31:57.349Z,101661.24
2019-03-26T10:33:02.618Z,101659.75
2019-03-26T10:34:07.292Z,101660.47
2019-03-26T10:35:11.953Z,101663.28
2019-03-26T10:36:16.414Z,101656.14
2019-03-26T10:37:21.430Z,101654.35
2019-03-26T10:38:25.794Z,101650.43
2019-03-26T10:39:30.657Z,101653.02
2019-03-26T10:40:35.863Z,101651.48
2019-03-26T10:41:40.489Z,101650.45
2019-03-26T10:42:45.433Z,101638.02
2019-03-26T10:43:50.117Z,101642.48
2019-03-26T10:44:54.563Z,101647.88
2019-03-26T10:45:59.279Z,101642.86
2019-03-26T10:47:03.807Z,101644.69
2019-03-26T10:48:08.884Z,101645.20
2019-03-26T10:49:13.522Z,101644.83
2019-03-26T10:50:17.972Z,101644.48
2019-03-26T10:51:22.612Z,101642.89
2019-03-26T10:52:29.214Z,101640.64
2019-03-26T10:53:33.214Z,101640.20
2019-03-26T10:54:37.657Z,101638.92
2019-03-26T10:55:42.182Z,101637.53
2019-03-26T10:56:46.563Z,101634.39
2019-03-26T10:57:50.934Z,101641.95
2019-03-26T10:58:55.387Z,101639.37
2019-03-26T10:59:59.828Z,101643.70
2019-03-26T11:01:04.340Z,101641.19
2019-03-26T11:02:08.877Z,101639.95
2019-03-26T11:03:13.320Z,101637.56
2019-03-26T11:04:17.767Z,101633.27
2019-03-26T11:05:22.488Z,101637.84
2019-03-26T11:06:28.121Z,101644.13
2019-03-26T11:07:32.572Z,101636.87
2019-03-26T11:08:37.019Z,101637.23
2019-03-26T11:09:41.466Z,101635.41
2019-03-26T11:10:45.910Z,101639.02
2019-03-26T11:11:50.540Z,101641.00
2019-03-26T11:12:55.067Z,101640.10
2019-03-26T11:13:59.522Z,101646.63
2019-03-26T11:15:04.706Z,101642.66
2019-03-26T11:16:09.407Z,101646.84
2019-03-26T11:17:13.872Z,101649.70
2019-03-26T11:18:18.315Z,101649.31
2019-03-26T11:19:22.691Z,101648.89
2019-03-26T11:20:27.141Z,101652.83
2019-03-26T11:21:31.619Z,101651.83
2019-03-26T11:22:36.232Z,101652.16
2019-03-26T11:23:40.755Z,101654.08
2019-03-26T11:24:45.201Z,101658.19
2019-03-26T11:25:49.571Z,101657.40
2019-03-26T11:26:54.031Z,101658.08
2019-03-26T11:27:58.791Z,101665.36
2019-03-26T11:29:03.558Z,101652.58
2019-03-26T11:30:09.758Z,101646.72
2019-03-26T11:31:14.290Z,101644.75
2019-03-26T11:32:18.673Z,101648.79
2019-03-26T11:33:23.139Z,101652.13
2019-03-26T11:34:27.520Z,101650.81
2019-03-26T11:35:32.125Z,101653.95
2019-03-26T11:36:36.573Z,101653.92
2019-03-26T11:37:41.149Z,101654.67
2019-03-26T11:38:45.604Z,101657.72
2019-03-26T11:39:50.131Z,101653.50
2019-03-26T11:40:54.577Z,101665.97
2019-03-26T11:41:59.086Z,101659.40
2019-03-26T11:43:03.617Z,101658.68
2019-03-26T11:44:08.139Z,101664.28
2019-03-26T11:45:14.073Z,101651.49
2019-03-26T11:46:18.442Z,101651.27
2019-03-26T11:47:22.894Z,101644.21
2019-03-26T11:48:27.349Z,101648.60
2019-03-26T11:49:31.883Z,101644.38
2019-03-26T11:50:36.597Z,101643.75
2019-03-26T11:51:41.265Z,101646.23
2019-03-26T11:52:45.731Z,101641.06
2019-03-26T11:53:50.103Z,101640.98
2019-03-26T11:54:54.991Z,101647.16
2019-03-26T11:55:59.517Z,101648.43
2019-03-26T11:57:04.047Z,101649.70
2019-03-26T11:58:08.512Z,101643.73
2019-03-26T11:59:12.886Z,101642.71
2019-03-26T12:00:21.072Z,101640.72
2019-03-26T12:01:25.595Z,101641.48
2019-03-26T12:02:30.240Z,101639.08
2019-03-26T12:03:34.859Z,101633.00
2019-03-26T12:04:39.553Z,101633.80
2019-03-26T12:05:44.276Z,101629.52
2019-03-26T12:06:48.803Z,101625.22
2019-03-26T12:07:53.978Z,101628.27
2019-03-26T12:08:58.493Z,101623.05
2019-03-26T12:10:03.027Z,101622.41
2019-03-26T12:11:07.797Z,101621.38
2019-03-26T12:12:12.253Z,101620.86
2019-03-26T12:13:16.635Z,101620.36
2019-03-26T12:14:21.079Z,101617.17
2019-03-26T12:15:25.521Z,101617.97
2019-03-26T12:16:30.289Z,101612.57
2019-03-26T12:17:34.986Z,101616.23
2019-03-26T12:18:39.862Z,101607.08